createdAt,value
2023-03-19T00:00:31.901Z,27.85
2023-03-19T00:03:06.724Z,28.15
2023-03-19T00:05:35.860Z,28.40
2023-03-19T00:08:04.798Z,28.30
2023-03-19T00:10:32.992Z,30.67
2023-03-19T00:13:00.623Z,30.27
2023-03-19T00:15:27.976Z,31.52
2023-03-19T00:17:56.725Z,31.33
2023-03-19T00:20:24.034Z,29.88
2023-03-19T00:22:51.403Z,27.65
2023-03-19T00:25:18.823Z,33.22
2023-03-19T00:27:46.449Z,25.58
2023-03-19T00:30:15.333Z,26.35
2023-03-19T00:32:43.172Z,29.13
2023-03-19T00:35:10.965Z,28.33
2023-03-19T00:37:40.632Z,29.92
2023-03-19T00:40:10.576Z,27.10
2023-03-19T00:42:37.864Z,30.83
2023-03-19T00:45:05.866Z,28.77
2023-03-19T00:47:33.798Z,30.05
2023-03-19T00:50:03.942Z,28.80
2023-03-19T00:52:31.652Z,28.35
2023-03-19T00:54:58.865Z,28.00
2023-03-19T00:57:26.219Z,30.55
2023-03-19T00:59:53.884Z,28.92
2023-03-19T01:02:21.500Z,29.33
2023-03-19T01:04:49.733Z,27.92
2023-03-19T01:07:17.424Z,26.27
2023-03-19T01:09:44.798Z,26.67
2023-03-19T01:12:12.386Z,28.75
2023-03-19T01:14:39.795Z,27.38
2023-03-19T01:17:07.388Z,28.52
2023-03-19T01:19:34.795Z,28.80
2023-03-19T01:22:04.756Z,27.50
2023-03-19T01:24:33.801Z,27.42
2023-03-19T01:27:01.771Z,25.08
2023-03-19T01:29:33.845Z,25.40
2023-03-19T01:32:10.997Z,27.52
2023-03-19T01:34:47.848Z,27.40
2023-03-19T01:37:17.421Z,27.90
2023-03-19T01:39:47.150Z,26.63
2023-03-19T01:42:15.977Z,25.30
2023-03-19T01:45:03.841Z,26.30
2023-03-19T01:50:43.286Z,25.33
2023-03-19T01:53:44.099Z,26.73
2023-03-19T01:56:24.246Z,25.48
2023-03-19T01:59:25.646Z,23.83
2023-03-19T02:02:25.839Z,26.98
2023-03-19T02:05:00.789Z,22.83
2023-03-19T02:07:46.610Z,24.77
2023-03-19T02:10:17.086Z,27.05
2023-03-19T02:12:44.894Z,20.67
2023-03-19T02:15:12.975Z,21.50
2023-03-19T02:17:42.610Z,28.70
2023-03-19T02:20:28.710Z,21.20
2023-03-19T02:23:11.061Z,19.63
2023-03-19T02:26:04.063Z,25.52
2023-03-19T02:28:33.556Z,21.55
2023-03-19T02:31:03.705Z,26.33
2023-03-19T02:33:31.689Z,23.90
2023-03-19T02:35:59.250Z,24.55
2023-03-19T02:38:30.555Z,26.90
2023-03-19T02:41:06.001Z,21.98
2023-03-19T02:43:35.090Z,22.85
2023-03-19T02:46:07.006Z,24.80
2023-03-19T02:48:35.146Z,26.20
2023-03-19T02:51:05.693Z,23.88
2023-03-19T02:53:34.961Z,24.85
2023-03-19T02:56:05.475Z,24.70
2023-03-19T03:01:03.720Z,26.25
2023-03-19T03:03:32.637Z,25.30
2023-03-19T03:05:59.989Z,22.75
2023-03-19T03:08:28.738Z,22.52
2023-03-19T03:10:57.195Z,21.35
2023-03-19T03:13:25.330Z,21.65
2023-03-19T03:15:53.625Z,23.67
2023-03-19T03:18:21.156Z,21.70
2023-03-19T03:20:49.033Z,22.52
2023-03-19T03:23:18.003Z,17.98
2023-03-19T03:25:48.564Z,20.55
2023-03-19T03:28:17.872Z,18.02
2023-03-19T03:30:47.052Z,23.50
2023-03-19T03:33:14.518Z,19.63
2023-03-19T03:35:41.775Z,19.42
2023-03-19T03:38:10.347Z,22.08
2023-03-19T03:40:37.686Z,23.05
2023-03-19T03:43:05.230Z,16.10
2023-03-19T03:45:35.312Z,18.55
2023-03-19T03:48:04.644Z,17.02
2023-03-19T03:50:32.060Z,19.88
2023-03-19T03:53:04.865Z,15.48
2023-03-19T03:55:32.408Z,21.25
2023-03-19T03:57:59.880Z,17.80
2023-03-19T04:00:27.910Z,19.17
2023-03-19T04:02:59.341Z,17.20
2023-03-19T04:05:26.708Z,21.90
2023-03-19T04:08:05.424Z,17.50
2023-03-19T04:10:33.540Z,19.35
2023-03-19T04:13:03.557Z,21.00
2023-03-19T04:15:33.423Z,20.02
2023-03-19T04:18:03.889Z,20.23
2023-03-19T04:20:33.204Z,24.17
2023-03-19T04:23:03.047Z,16.35
2023-03-19T04:25:31.095Z,18.42
2023-03-19T04:27:59.202Z,23.05
2023-03-19T04:32:57.551Z,21.38
2023-03-19T04:35:25.798Z,18.90
2023-03-19T04:37:53.372Z,18.30
2023-03-19T04:40:22.091Z,17.98
2023-03-19T04:42:50.329Z,20.52
2023-03-19T04:45:36.752Z,19.77
2023-03-19T04:48:04.336Z,20.67
2023-03-19T04:50:35.085Z,19.92
2023-03-19T04:53:04.608Z,21.00
2023-03-19T04:55:32.528Z,18.80
2023-03-19T04:58:09.922Z,21.27
2023-03-19T05:00:38.305Z,19.77
2023-03-19T05:03:07.242Z,19.30
2023-03-19T05:05:35.896Z,18.33
2023-03-19T05:08:08.792Z,15.85
2023-03-19T05:10:38.019Z,17.10
2023-03-19T05:13:06.265Z,15.20
2023-03-19T05:15:37.440Z,16.17
2023-03-19T05:18:08.726Z,16.33
2023-03-19T05:20:42.791Z,16.17
2023-03-19T05:23:18.144Z,16.95
2023-03-19T05:26:01.373Z,15.95
2023-03-19T05:28:48.449Z,16.02
2023-03-19T05:31:19.632Z,17.48
2023-03-19T05:33:51.550Z,14.10
2023-03-19T05:36:19.548Z,16.55
2023-03-19T05:38:58.907Z,15.30
2023-03-19T05:41:32.952Z,15.25
2023-03-19T05:44:05.025Z,14.07
2023-03-19T05:46:43.802Z,17.65
2023-03-19T05:49:17.927Z,16.45
2023-03-19T05:51:45.582Z,19.00
2023-03-19T05:54:14.129Z,16.77
2023-03-19T05:56:50.090Z,13.73
2023-03-19T05:59:43.476Z,13.43
2023-03-19T06:02:37.927Z,14.95
2023-03-19T06:05:31.977Z,12.75
2023-03-19T06:08:07.187Z,14.68
2023-03-19T06:10:53.058Z,15.13
2023-03-19T06:13:20.649Z,14.93
2023-03-19T06:15:54.112Z,13.77
2023-03-19T06:18:26.310Z,13.93
2023-03-19T06:20:53.793Z,16.55
2023-03-19T06:23:21.584Z,13.88
2023-03-19T06:25:49.650Z,13.30
2023-03-19T06:28:18.465Z,14.30
2023-03-19T06:30:46.785Z,15.07
2023-03-19T06:33:43.795Z,14.25
2023-03-19T06:36:11.509Z,15.07
2023-03-19T06:38:39.595Z,14.77
2023-03-19T06:41:07.425Z,15.70
2023-03-19T06:43:37.347Z,14.40
2023-03-19T06:46:05.472Z,15.05
2023-03-19T06:48:34.327Z,15.57
2023-03-19T06:51:02.189Z,12.75
2023-03-19T06:53:32.190Z,16.13
2023-03-19T06:55:59.436Z,12.85
2023-03-19T06:58:36.408Z,15.35
2023-03-19T07:01:04.473Z,13.65
2023-03-19T07:03:31.865Z,12.88
2023-03-19T07:06:11.870Z,12.85
2023-03-19T07:08:39.233Z,12.05
2023-03-19T07:11:10.963Z,11.98
2023-03-19T07:13:38.369Z,10.00
2023-03-19T07:16:06.621Z,9.65
2023-03-19T07:18:34.389Z,9.98
2023-03-19T07:21:02.069Z,9.90
2023-03-19T07:23:32.306Z,7.55
2023-03-19T07:25:59.696Z,7.45
2023-03-19T07:28:27.098Z,6.57
2023-03-19T07:30:54.676Z,6.50
2023-03-19T07:33:29.030Z,5.95
2023-03-19T07:35:59.481Z,6.40
2023-03-19T07:38:27.178Z,5.85
2023-03-19T07:41:01.913Z,7.10
2023-03-19T07:43:31.506Z,6.05
2023-03-19T07:46:00.909Z,5.72
2023-03-19T07:51:00.527Z,7.10
2023-03-19T07:53:27.814Z,6.88
2023-03-19T07:55:55.522Z,6.97
2023-03-19T07:58:22.872Z,6.93
2023-03-19T08:00:50.674Z,7.20
2023-03-19T08:03:17.943Z,6.50
2023-03-19T08:05:45.333Z,8.52
2023-03-19T08:08:13.085Z,6.95
2023-03-19T08:10:40.947Z,6.80
2023-03-19T08:13:08.436Z,9.85
2023-03-19T08:15:35.991Z,9.43
2023-03-19T08:18:08.854Z,9.13
2023-03-19T08:20:36.482Z,7.43
2023-03-19T08:23:04.471Z,11.85
2023-03-19T08:25:32.764Z,8.73
2023-03-19T08:28:01.269Z,10.43
2023-03-19T08:30:31.969Z,10.40
2023-03-19T08:33:00.186Z,8.73
2023-03-19T08:35:27.720Z,10.77
2023-03-19T08:37:56.749Z,9.68
2023-03-19T08:40:24.389Z,10.43
2023-03-19T08:42:52.004Z,10.18
2023-03-19T08:45:20.049Z,10.32
2023-03-19T08:47:49.013Z,10.25
2023-03-19T08:50:17.549Z,10.00
2023-03-19T08:52:44.932Z,11.55
2023-03-19T08:55:12.619Z,11.18
2023-03-19T08:57:40.108Z,11.27
2023-03-19T09:00:09.296Z,10.70
2023-03-19T09:02:36.630Z,10.65
2023-03-19T09:05:04.315Z,9.48
2023-03-19T09:07:31.654Z,11.95
2023-03-19T09:09:59.074Z,8.70
2023-03-19T09:12:26.585Z,8.90
2023-03-19T09:14:53.851Z,8.32
2023-03-19T09:17:21.157Z,6.55
2023-03-19T09:19:48.429Z,6.53
2023-03-19T09:22:15.711Z,6.18
2023-03-19T09:24:43.052Z,6.70
2023-03-19T09:27:10.443Z,7.75
2023-03-19T09:29:37.718Z,9.43
2023-03-19T09:32:06.200Z,11.23
2023-03-19T09:34:33.780Z,10.43
2023-03-19T09:37:01.513Z,11.27
2023-03-19T09:39:32.656Z,10.60
2023-03-19T09:42:18.618Z,11.40
2023-03-19T09:44:46.593Z,11.38
2023-03-19T09:47:26.404Z,11.85
2023-03-19T09:49:58.365Z,11.43
2023-03-19T09:52:58.736Z,10.93
2023-03-19T09:55:45.711Z,11.40
2023-03-19T09:58:17.246Z,11.30
2023-03-19T10:00:49.100Z,9.68
2023-03-19T10:03:35.415Z,9.18
2023-03-19T10:06:08.846Z,9.13
2023-03-19T10:08:45.763Z,9.65
2023-03-19T10:11:49.180Z,8.05
2023-03-19T10:15:04.442Z,6.57
2023-03-19T10:17:41.246Z,6.28
2023-03-19T10:20:22.654Z,5.85
2023-03-19T10:23:00.664Z,6.97
2023-03-19T10:25:41.779Z,8.00
2023-03-19T10:28:20.591Z,6.75
2023-03-19T10:31:17.739Z,7.20
2023-03-19T10:33:57.056Z,8.05
2023-03-19T10:36:31.006Z,7.40
2023-03-19T10:38:58.408Z,7.10
2023-03-19T10:41:51.296Z,7.60
2023-03-19T10:44:47.530Z,6.40
2023-03-19T10:47:16.986Z,6.93
2023-03-19T10:49:44.390Z,6.88
2023-03-19T10:52:32.662Z,7.20
2023-03-19T10:55:18.957Z,6.20
2023-03-19T10:57:50.627Z,7.35
2023-03-19T11:00:23.626Z,8.77
2023-03-19T11:02:54.198Z,7.95
2023-03-19T11:07:51.698Z,6.85
2023-03-19T11:10:20.503Z,7.53
2023-03-19T11:12:55.078Z,8.20
2023-03-19T11:15:33.271Z,7.18
2023-03-19T11:18:07.186Z,8.02
2023-03-19T11:20:37.674Z,7.38
2023-03-19T11:23:16.982Z,8.93
2023-03-19T11:25:53.213Z,6.40
2023-03-19T11:28:26.296Z,7.53
2023-03-19T11:31:15.607Z,6.53
2023-03-19T11:34:14.406Z,6.65
2023-03-19T11:37:05.252Z,6.63
2023-03-19T11:39:51.534Z,6.57
2023-03-19T11:42:36.749Z,7.50
2023-03-19T11:45:20.824Z,6.65
2023-03-19T11:47:57.243Z,7.72
2023-03-19T11:50:43.910Z,6.63
2023-03-19T11:53:14.253Z,7.60
2023-03-19T11:56:05.559Z,8.52
2023-03-19T11:58:47.953Z,7.03
2023-03-19T12:01:45.896Z,8.23
2023-03-19T12:04:31.838Z,6.47
2023-03-19T12:07:13.456Z,7.32
2023-03-19T12:10:08.246Z,7.20
2023-03-19T12:13:27.081Z,7.40
2023-03-19T12:16:15.968Z,7.80
2023-03-19T12:19:18.611Z,8.30
2023-03-19T12:21:54.800Z,7.15
2023-03-19T12:24:44.168Z,6.85
2023-03-19T12:27:30.539Z,9.32
2023-03-19T12:30:13.355Z,7.20
2023-03-19T12:33:10.137Z,7.78
2023-03-19T12:35:40.831Z,6.95
2023-03-19T12:40:50.721Z,8.23
2023-03-19T12:43:51.917Z,7.20
2023-03-19T12:46:43.165Z,7.97
2023-03-19T12:49:23.249Z,9.35
2023-03-19T12:51:57.278Z,8.27
2023-03-19T12:54:28.663Z,8.02
2023-03-19T12:57:05.445Z,7.85
2023-03-19T13:00:03.566Z,7.13
2023-03-19T13:02:42.294Z,7.85
2023-03-19T13:05:23.164Z,8.95
2023-03-19T13:08:00.567Z,8.75
2023-03-19T13:10:30.822Z,9.15
2023-03-19T13:13:00.539Z,9.60
2023-03-19T13:15:27.702Z,9.60
2023-03-19T13:18:16.889Z,8.38
2023-03-19T13:20:55.758Z,10.02
2023-03-19T13:23:30.123Z,10.15
2023-03-19T13:25:59.222Z,12.02
2023-03-19T13:28:55.929Z,11.95
2023-03-19T13:31:30.685Z,12.65
2023-03-19T13:34:16.781Z,10.68
2023-03-19T13:36:53.051Z,12.07
2023-03-19T13:39:25.217Z,11.48
2023-03-19T13:41:54.893Z,16.27
2023-03-19T13:44:22.119Z,12.43
2023-03-19T13:46:49.994Z,14.80
2023-03-19T13:49:36.775Z,15.40
2023-03-19T13:52:26.895Z,15.77
2023-03-19T13:54:57.928Z,15.00
2023-03-19T13:57:36.021Z,15.77
2023-03-19T14:00:41.383Z,14.85
2023-03-19T14:03:26.692Z,14.18
2023-03-19T14:05:56.601Z,15.90
2023-03-19T14:08:32.725Z,16.87
2023-03-19T14:11:06.892Z,16.50
2023-03-19T14:13:49.280Z,17.02
2023-03-19T14:16:26.440Z,16.60
2023-03-19T14:19:00.439Z,16.42
2023-03-19T14:21:59.519Z,18.02
2023-03-19T14:24:56.320Z,18.90
2023-03-19T14:27:33.338Z,17.50
2023-03-19T14:30:19.132Z,18.52
2023-03-19T14:32:49.179Z,18.92
2023-03-19T14:35:20.688Z,19.65
2023-03-19T14:37:50.856Z,21.08
2023-03-19T14:40:23.054Z,20.27
2023-03-19T14:43:04.142Z,24.77
2023-03-19T14:45:48.445Z,19.98
2023-03-19T14:48:43.114Z,21.52
2023-03-19T14:51:28.830Z,24.30
2023-03-19T14:54:06.803Z,27.08
2023-03-19T14:56:35.889Z,32.10
2023-03-19T14:59:06.488Z,29.80
2023-03-19T15:01:43.733Z,30.65
2023-03-19T15:04:14.441Z,28.50
2023-03-19T15:06:46.750Z,28.80
2023-03-19T15:09:22.507Z,30.10
2023-03-19T15:12:08.416Z,30.98
2023-03-19T15:14:54.220Z,25.75
2023-03-19T15:17:27.777Z,30.73
2023-03-19T15:19:58.554Z,23.65
2023-03-19T15:25:14.890Z,22.50
2023-03-19T15:27:43.492Z,22.55
2023-03-19T15:30:32.614Z,21.02
2023-03-19T15:33:16.438Z,21.90
2023-03-19T15:35:48.701Z,21.65
2023-03-19T15:38:18.157Z,20.25
2023-03-19T15:40:45.715Z,18.50
2023-03-19T15:43:13.717Z,18.90
2023-03-19T15:45:46.484Z,22.67
2023-03-19T15:48:28.467Z,28.63
2023-03-19T15:51:00.699Z,22.73
2023-03-19T15:53:32.222Z,22.10
2023-03-19T15:56:02.985Z,21.30
2023-03-19T16:01:01.735Z,23.65
2023-03-19T16:03:52.439Z,23.42
2023-03-19T16:09:07.587Z,27.15
2023-03-19T16:11:41.360Z,26.55
2023-03-19T16:14:14.830Z,27.25
2023-03-19T16:16:42.386Z,27.10
2023-03-19T16:19:32.950Z,30.27
2023-03-19T16:22:01.594Z,27.70
2023-03-19T16:24:36.269Z,30.15
2023-03-19T16:27:07.052Z,30.58
2023-03-19T16:29:58.640Z,28.67
2023-03-19T16:32:31.537Z,29.58
2023-03-19T16:35:19.785Z,36.75
2023-03-19T16:37:49.048Z,31.42
2023-03-19T16:40:24.529Z,30.67
2023-03-19T16:42:54.245Z,31.67
2023-03-19T16:45:32.197Z,30.95
2023-03-19T16:48:03.704Z,30.58
2023-03-19T16:50:40.047Z,29.67
2023-03-19T16:53:29.552Z,31.92
2023-03-19T16:55:58.553Z,27.80
2023-03-19T16:58:35.062Z,29.08
2023-03-19T17:01:04.758Z,29.83
2023-03-19T17:03:32.061Z,34.33
2023-03-19T17:05:59.413Z,28.50
2023-03-19T17:08:27.582Z,30.45
2023-03-19T17:10:56.307Z,33.53
2023-03-19T17:13:30.574Z,28.88
2023-03-19T17:16:01.837Z,28.13
2023-03-19T17:18:33.268Z,33.47
2023-03-19T17:21:07.078Z,31.33
2023-03-19T17:23:34.884Z,33.83
2023-03-19T17:26:09.291Z,30.33
2023-03-19T17:28:37.522Z,33.67
2023-03-19T17:31:05.106Z,31.80
2023-03-19T17:33:32.363Z,33.90
2023-03-19T17:35:59.921Z,32.30
2023-03-19T17:38:32.830Z,27.85
2023-03-19T17:41:00.417Z,30.95
2023-03-19T17:43:27.672Z,23.98
2023-03-19T17:45:55.562Z,31.73
2023-03-19T17:48:25.989Z,26.95
2023-03-19T17:50:55.915Z,31.38
2023-03-19T17:53:23.144Z,30.27
2023-03-19T17:55:50.458Z,35.13
2023-03-19T17:58:20.091Z,34.22
2023-03-19T18:00:49.528Z,29.17
2023-03-19T18:03:19.311Z,25.17
2023-03-19T18:05:47.159Z,25.70
2023-03-19T18:08:20.903Z,21.65
2023-03-19T18:10:48.233Z,27.17
2023-03-19T18:13:16.040Z,16.50
2023-03-19T18:15:45.153Z,19.45
2023-03-19T18:18:19.065Z,16.67
2023-03-19T18:20:47.569Z,11.77
2023-03-19T18:23:18.078Z,13.90
2023-03-19T18:25:46.313Z,14.75
2023-03-19T18:28:13.750Z,14.57
2023-03-19T18:30:43.445Z,19.42
2023-03-19T18:33:22.293Z,18.90
2023-03-19T18:35:49.765Z,14.45
2023-03-19T18:38:20.337Z,16.20
2023-03-19T18:40:48.918Z,16.95
2023-03-19T18:43:18.148Z,18.77
2023-03-19T18:45:49.319Z,13.27
2023-03-19T18:48:20.863Z,15.38
2023-03-19T18:50:48.505Z,17.17
2023-03-19T18:53:16.520Z,17.02
2023-03-19T18:55:44.647Z,14.40
2023-03-19T18:58:21.561Z,18.05
2023-03-19T19:00:49.954Z,18.35
2023-03-19T19:03:19.918Z,19.35
2023-03-19T19:05:47.518Z,15.63
2023-03-19T19:08:17.657Z,16.52
2023-03-19T19:10:54.245Z,15.95
2023-03-19T19:13:25.937Z,19.33
2023-03-19T19:15:53.474Z,16.77
2023-03-19T19:18:24.232Z,16.52
2023-03-19T19:23:21.173Z,18.70
2023-03-19T19:25:52.063Z,17.83
2023-03-19T19:28:41.195Z,17.00
2023-03-19T19:31:24.667Z,22.00
2023-03-19T19:33:52.781Z,16.20
2023-03-19T19:36:21.320Z,19.17
2023-03-19T19:38:48.794Z,19.73
2023-03-19T19:41:18.495Z,22.45
2023-03-19T19:43:47.496Z,20.30
2023-03-19T19:46:16.598Z,17.88
2023-03-19T19:48:44.896Z,17.75
2023-03-19T19:51:21.895Z,17.17
2023-03-19T19:53:49.693Z,16.92
2023-03-19T19:56:26.777Z,15.68
2023-03-19T19:58:55.872Z,18.40
2023-03-19T20:01:25.266Z,16.17
2023-03-19T20:03:53.365Z,15.85
2023-03-19T20:06:20.953Z,15.15
2023-03-19T20:08:51.207Z,13.73
2023-03-19T20:11:21.812Z,14.93
2023-03-19T20:13:54.181Z,14.38
2023-03-19T20:16:24.376Z,17.67
2023-03-19T20:18:55.187Z,12.05
2023-03-19T20:23:53.083Z,10.23
2023-03-19T20:26:23.576Z,11.77
2023-03-19T20:28:51.554Z,11.75
2023-03-19T20:31:30.126Z,10.63
2023-03-19T20:33:57.730Z,17.30
2023-03-19T20:36:26.805Z,11.77
2023-03-19T20:38:54.594Z,11.20
2023-03-19T20:41:24.447Z,13.35
2023-03-19T20:43:52.366Z,8.83
2023-03-19T20:46:21.032Z,12.95
2023-03-19T20:48:49.290Z,14.23
2023-03-19T20:51:24.945Z,17.17
2023-03-19T20:53:53.058Z,12.63
2023-03-19T20:56:24.784Z,15.30
2023-03-19T20:58:52.650Z,11.00
2023-03-19T21:01:20.080Z,12.68
2023-03-19T21:03:47.574Z,14.13
2023-03-19T21:06:20.680Z,12.45
2023-03-19T21:08:50.946Z,12.60
2023-03-19T21:11:21.981Z,11.98
2023-03-19T21:13:52.823Z,12.98
2023-03-19T21:16:25.763Z,13.13
2023-03-19T21:18:54.527Z,13.25
2023-03-19T21:21:32.597Z,14.23
2023-03-19T21:24:13.111Z,14.07
2023-03-19T21:26:41.803Z,11.45
2023-03-19T21:29:18.420Z,13.50
2023-03-19T21:31:46.040Z,13.50
2023-03-19T21:34:14.575Z,15.90
2023-03-19T21:36:41.875Z,12.15
2023-03-19T21:39:09.110Z,11.40
2023-03-19T21:41:37.331Z,9.82
2023-03-19T21:44:15.595Z,10.70
2023-03-19T21:46:46.682Z,13.68
2023-03-19T21:49:14.625Z,6.65
2023-03-19T21:51:44.725Z,9.18
2023-03-19T21:54:12.091Z,9.45
2023-03-19T21:56:44.975Z,6.95
2023-03-19T21:59:22.852Z,9.02
2023-03-19T22:01:50.195Z,7.50
2023-03-19T22:04:19.339Z,8.77
2023-03-19T22:06:46.862Z,6.22
2023-03-19T22:09:14.108Z,6.25
2023-03-19T22:11:46.042Z,7.78
2023-03-19T22:14:24.752Z,8.88
2023-03-19T22:16:54.848Z,7.15
2023-03-19T22:19:22.411Z,7.85
2023-03-19T22:21:56.311Z,7.75
2023-03-19T22:24:23.548Z,8.32
2023-03-19T22:26:56.907Z,7.13
2023-03-19T22:29:25.865Z,5.20
2023-03-19T22:31:54.706Z,12.40
2023-03-19T22:34:24.825Z,6.65
2023-03-19T22:36:52.088Z,10.02
2023-03-19T22:39:19.415Z,6.15
2023-03-19T22:41:48.872Z,6.65
2023-03-19T22:44:29.778Z,10.23
2023-03-19T22:49:26.540Z,6.45
2023-03-19T22:51:53.940Z,6.63
2023-03-19T22:54:21.197Z,8.18
2023-03-19T22:56:48.541Z,9.63
2023-03-19T22:59:16.276Z,7.35
2023-03-19T23:01:46.291Z,6.80
2023-03-19T23:04:25.465Z,5.90
2023-03-19T23:06:54.785Z,7.07
2023-03-19T23:09:33.523Z,6.43
2023-03-19T23:12:02.752Z,5.88
2023-03-19T23:14:31.508Z,4.68
2023-03-19T23:17:10.142Z,6.32
2023-03-19T23:19:38.559Z,8.00
2023-03-19T23:22:08.098Z,7.13
2023-03-19T23:24:35.463Z,6.78
2023-03-19T23:27:04.392Z,5.60
2023-03-19T23:29:35.177Z,8.43
2023-03-19T23:34:35.279Z,9.57
2023-03-19T23:37:04.701Z,8.18
2023-03-19T23:39:32.118Z,10.05
2023-03-19T23:42:00.367Z,14.25
2023-03-19T23:44:29.495Z,8.32
2023-03-19T23:47:03.503Z,12.30
2023-03-19T23:49:33.428Z,10.77
2023-03-19T23:52:01.985Z,12.75
2023-03-19T23:54:39.563Z,12.05
2023-03-19T23:57:12.926Z,12.10
2023-03-19T23:59:42.791Z,13.48
